2018/12/16 04:30 VVNB 160430Z 02009KT 340V040 9999 FEW025 BKN044 18/11 Q1026 NOSIG
2018/12/16 04:30 VVDN 160430Z 33005KT 3500 RA BR FEW007 SCT012 BKN050 23/22 Q1021 NOSIG
2018/12/16 04:30 VVTS 160430Z 03005KT 330V110 9999 SCT020 32/22 Q1013 NOSIG
2018/12/16 04:30 VVPB 160430Z 26005KT 2000 -RA BR SCT006 SCT010 BKN030 21/21 Q1021 NOSIG

Powered by MinhViet JSC.